PWSweather.com
Personal Weather Stations
Station Observations
IBAVARIA50
Munich, PlieningDE 85652

MunichPlieningDE 85652

Lat: 48.19916153, Lon: 11.79794312

Elevation: 504

Station Type: Davis Vantage Pro2

http://wetterstation-pliening.info

High Low Average
Temperature 63.8°F17.7°C 50.9°F10.5°C 55.7°F13.2°C
Dew Point 54.6°F12.6°C 49.3°F9.6°C 51.9°F11.1°C
Winds 14.0 mph 22.5 kmh Calm Calm 6.0 mph WSW9.7 kmh WSW
Wind Gusts 17.0 mph27.4 kmh 3.0 mph4.8 kmh 11.0 mph17.7 kmh
Humidity 95% 70% 87%
Pressure 30.03 in1016.9 mb 29.93 in1013.5 mb -
Precipitation 0.06 in1.5 mm - -
Hour Temp Dew Point Humidity Winds Wind Gusts Pressure Precip Precip Rate Daily Precip Total
12:00 AM 51.8°F11.0°C 49.8°F9.9°C 93% 6.0 mph W9.7 kmh W 10.0 mph16.1 kmh 29.94 in1013.9 mb 0.00 in0.0 mm 0.00 in0.0 mm 0.00 in0.0 mm
12:05 AM 51.8°F11.0°C 49.8°F9.9°C 93% 3.0 mph W4.8 kmh W 8.0 mph12.9 kmh 29.94 in1013.9 mb 0.00 in0.0 mm 0.00 in0.0 mm 0.00 in0.0 mm
12:10 AM 51.8°F11.0°C 49.8°F9.9°C 93% 5.0 mph W8.0 kmh W 8.0 mph12.9 kmh 29.94 in1013.9 mb 0.00 in0.0 mm 0.00 in0.0 mm 0.00 in0.0 mm
12:15 AM 51.8°F11.0°C 49.8°F9.9°C 93% 5.0 mph WNW8.0 kmh WNW 6.0 mph9.7 kmh 29.94 in1013.9 mb 0.00 in0.0 mm 0.00 in0.0 mm 0.00 in0.0 mm
12:20 AM 51.9°F11.1°C 49.9°F9.9°C 93% 2.0 mph WNW3.2 kmh WNW 5.0 mph8.0 kmh 29.94 in1013.9 mb 0.00 in0.0 mm 0.00 in0.0 mm 0.00 in0.0 mm
12:25 AM 51.9°F11.1°C 49.9°F9.9°C 93% 2.0 mph WNW3.2 kmh WNW 3.0 mph4.8 kmh 29.94 in1013.9 mb 0.00 in0.0 mm 0.00 in0.0 mm 0.00 in0.0 mm
12:30 AM 51.9°F11.1°C 49.9°F9.9°C 93% 3.0 mph W4.8 kmh W 4.0 mph6.4 kmh 29.94 in1013.9 mb 0.00 in0.0 mm 0.00 in0.0 mm 0.00 in0.0 mm
12:35 AM 51.9°F11.1°C 49.9°F9.9°C 93% Calm Calm 5.0 mph8.0 kmh 29.95 in1014.2 mb 0.00 in0.0 mm 0.00 in0.0 mm 0.00 in0.0 mm
12:40 AM 52.1°F11.2°C 50.1°F10.1°C 93% 3.0 mph N4.8 kmh N 4.0 mph6.4 kmh 29.95 in1014.2 mb 0.00 in0.0 mm 0.00 in0.0 mm 0.00 in0.0 mm
12:45 AM 52.1°F11.2°C 50.4°F10.2°C 94% 1.0 mph W1.6 kmh W 5.0 mph8.0 kmh 29.95 in1014.2 mb 0.00 in0.0 mm 0.00 in0.0 mm 0.00 in0.0 mm
12:50 AM 51.9°F11.1°C 49.9°F9.9°C 93% 2.0 mph WNW3.2 kmh WNW 4.0 mph6.4 kmh 29.95 in1014.2 mb 0.01 in0.3 mm 0.12 in3.0 mm 0.01 in0.3 mm
12:55 AM 51.8°F11.0°C 50.1°F10.1°C 94% 3.0 mph W4.8 kmh W 6.0 mph9.7 kmh 29.95 in1014.2 mb 0.01 in0.3 mm 0.00 in0.0 mm 0.01 in0.3 mm
01:00 AM 51.6°F10.9°C 49.9°F9.9°C 94% 4.0 mph W6.4 kmh W 8.0 mph12.9 kmh 29.95 in1014.2 mb 0.01 in0.3 mm 0.00 in0.0 mm 0.01 in0.3 mm
01:05 AM 51.6°F10.9°C 49.9°F9.9°C 94% 6.0 mph W9.7 kmh W 7.0 mph11.3 kmh 29.95 in1014.2 mb 0.01 in0.3 mm 0.00 in0.0 mm 0.01 in0.3 mm
01:15 AM 51.4°F10.8°C 49.7°F9.8°C 94% 4.0 mph WSW6.4 kmh WSW 9.0 mph14.5 kmh 29.94 in1013.9 mb 0.01 in0.3 mm 0.00 in0.0 mm 0.01 in0.3 mm
01:20 AM 51.2°F10.7°C 49.5°F9.7°C 94% 4.0 mph SW6.4 kmh SW 7.0 mph11.3 kmh 29.94 in1013.9 mb 0.01 in0.3 mm 0.00 in0.0 mm 0.01 in0.3 mm
01:25 AM 51.1°F10.6°C 49.4°F9.7°C 94% 6.0 mph WSW9.7 kmh WSW 9.0 mph14.5 kmh 29.94 in1013.9 mb 0.01 in0.3 mm 0.00 in0.0 mm 0.01 in0.3 mm
01:31 AM 51.0°F10.6°C 49.3°F9.6°C 94% 11.0 mph WSW17.7 kmh WSW 11.0 mph17.7 kmh 29.93 in1013.5 mb 0.01 in0.3 mm 0.00 in0.0 mm 0.01 in0.3 mm
01:36 AM 51.0°F10.6°C 49.3°F9.6°C 94% 4.0 mph W6.4 kmh W 12.0 mph19.3 kmh 29.93 in1013.5 mb 0.01 in0.3 mm 0.00 in0.0 mm 0.01 in0.3 mm
01:41 AM 51.1°F10.6°C 49.7°F9.8°C 95% 5.0 mph WSW8.0 kmh WSW 11.0 mph17.7 kmh 29.93 in1013.5 mb 0.01 in0.3 mm 0.00 in0.0 mm 0.01 in0.3 mm
01:46 AM 51.1°F10.6°C 49.7°F9.8°C 95% 7.0 mph SW11.3 kmh SW 12.0 mph19.3 kmh 29.93 in1013.5 mb 0.01 in0.3 mm 0.00 in0.0 mm 0.01 in0.3 mm
01:51 AM 51.1°F10.6°C 49.7°F9.8°C 95% 6.0 mph SSW9.7 kmh SSW 11.0 mph17.7 kmh 29.93 in1013.5 mb 0.00 in0.0 mm 0.00 in0.0 mm 0.01 in0.3 mm
01:56 AM 51.1°F10.6°C 49.7°F9.8°C 95% 7.0 mph WSW11.3 kmh WSW 11.0 mph17.7 kmh 29.93 in1013.5 mb 0.00 in0.0 mm 0.00 in0.0 mm 0.01 in0.3 mm
02:01 AM 51.2°F10.7°C 49.8°F9.9°C 95% 6.0 mph SW9.7 kmh SW 9.0 mph14.5 kmh 29.93 in1013.5 mb 0.01 in0.3 mm 0.01 in0.3 mm 0.02 in0.5 mm
02:06 AM 51.1°F10.6°C 49.7°F9.8°C 95% 5.0 mph SW8.0 kmh SW 12.0 mph19.3 kmh 29.93 in1013.5 mb 0.01 in0.3 mm 0.00 in0.0 mm 0.02 in0.5 mm
02:11 AM 51.2°F10.7°C 49.8°F9.9°C 95% 6.0 mph SW9.7 kmh SW 11.0 mph17.7 kmh 29.93 in1013.5 mb 0.01 in0.3 mm 0.00 in0.0 mm 0.02 in0.5 mm
02:16 AM 51.1°F10.6°C 49.7°F9.8°C 95% 5.0 mph WSW8.0 kmh WSW 12.0 mph19.3 kmh 29.93 in1013.5 mb 0.01 in0.3 mm 0.00 in0.0 mm 0.02 in0.5 mm
02:21 AM 51.1°F10.6°C 49.7°F9.8°C 95% 5.0 mph SW8.0 kmh SW 10.0 mph16.1 kmh 29.93 in1013.5 mb 0.01 in0.3 mm 0.00 in0.0 mm 0.02 in0.5 mm
02:26 AM 51.1°F10.6°C 49.7°F9.8°C 95% 4.0 mph SW6.4 kmh SW 11.0 mph17.7 kmh 29.93 in1013.5 mb 0.01 in0.3 mm 0.00 in0.0 mm 0.02 in0.5 mm
02:31 AM 51.1°F10.6°C 49.7°F9.8°C 95% 3.0 mph WSW4.8 kmh WSW 10.0 mph16.1 kmh 29.93 in1013.5 mb 0.01 in0.3 mm 0.00 in0.0 mm 0.02 in0.5 mm
02:36 AM 51.1°F10.6°C 49.7°F9.8°C 95% 3.0 mph WSW4.8 kmh WSW 13.0 mph20.9 kmh 29.93 in1013.5 mb 0.01 in0.3 mm 0.00 in0.0 mm 0.02 in0.5 mm
02:41 AM 51.1°F10.6°C 49.7°F9.8°C 95% 2.0 mph NW3.2 kmh NW 11.0 mph17.7 kmh 29.93 in1013.5 mb 0.01 in0.3 mm 0.00 in0.0 mm 0.02 in0.5 mm
02:46 AM 51.2°F10.7°C 49.8°F9.9°C 95% 8.0 mph WSW12.9 kmh WSW 10.0 mph16.1 kmh 29.93 in1013.5 mb 0.01 in0.3 mm 0.00 in0.0 mm 0.02 in0.5 mm
02:51 AM 51.1°F10.6°C 49.7°F9.8°C 95% 6.0 mph WSW9.7 kmh WSW 11.0 mph17.7 kmh 29.93 in1013.5 mb 0.01 in0.3 mm 0.00 in0.0 mm 0.02 in0.5 mm
02:56 AM 51.1°F10.6°C 49.7°F9.8°C 95% 4.0 mph WSW6.4 kmh WSW 7.0 mph11.3 kmh 29.93 in1013.5 mb 0.01 in0.3 mm 0.00 in0.0 mm 0.02 in0.5 mm
03:01 AM 51.1°F10.6°C 49.7°F9.8°C 95% 6.0 mph W9.7 kmh W 9.0 mph14.5 kmh 29.93 in1013.5 mb 0.00 in0.0 mm 0.00 in0.0 mm 0.02 in0.5 mm
03:06 AM 51.2°F10.7°C 49.8°F9.9°C 95% 3.0 mph WSW4.8 kmh WSW 6.0 mph9.7 kmh 29.93 in1013.5 mb 0.00 in0.0 mm 0.00 in0.0 mm 0.02 in0.5 mm
03:11 AM 51.2°F10.7°C 49.8°F9.9°C 95% 4.0 mph WSW6.4 kmh WSW 8.0 mph12.9 kmh 29.93 in1013.5 mb 0.01 in0.3 mm 0.12 in3.0 mm 0.02 in0.5 mm
03:16 AM 51.2°F10.7°C 49.8°F9.9°C 95% 6.0 mph WSW9.7 kmh WSW 8.0 mph12.9 kmh 29.93 in1013.5 mb 0.01 in0.3 mm 0.00 in0.0 mm 0.02 in0.5 mm
03:21 AM 51.1°F10.6°C 49.7°F9.8°C 95% 5.0 mph W8.0 kmh W 12.0 mph19.3 kmh 29.93 in1013.5 mb 0.01 in0.3 mm 0.00 in0.0 mm 0.02 in0.5 mm
03:26 AM 51.1°F10.6°C 49.7°F9.8°C 95% 5.0 mph WSW8.0 kmh WSW 10.0 mph16.1 kmh 29.93 in1013.5 mb 0.01 in0.3 mm 0.00 in0.0 mm 0.02 in0.5 mm
03:31 AM 51.1°F10.6°C 49.7°F9.8°C 95% 4.0 mph WSW6.4 kmh WSW 9.0 mph14.5 kmh 29.93 in1013.5 mb 0.01 in0.3 mm 0.00 in0.0 mm 0.02 in0.5 mm
03:36 AM 51.1°F10.6°C 49.7°F9.8°C 95% 4.0 mph W6.4 kmh W 10.0 mph16.1 kmh 29.93 in1013.5 mb 0.01 in0.3 mm 0.00 in0.0 mm 0.02 in0.5 mm
03:41 AM 51.0°F10.6°C 49.6°F9.8°C 95% 9.0 mph WSW14.5 kmh WSW 10.0 mph16.1 kmh 29.93 in1013.5 mb 0.01 in0.3 mm 0.00 in0.0 mm 0.02 in0.5 mm
03:46 AM 51.0°F10.6°C 49.6°F9.8°C 95% 10.0 mph WSW16.1 kmh WSW 11.0 mph17.7 kmh 29.93 in1013.5 mb 0.01 in0.3 mm 0.00 in0.0 mm 0.02 in0.5 mm
03:51 AM 51.0°F10.6°C 49.6°F9.8°C 95% 4.0 mph WSW6.4 kmh WSW 12.0 mph19.3 kmh 29.93 in1013.5 mb 0.01 in0.3 mm 0.00 in0.0 mm 0.02 in0.5 mm
03:56 AM 50.9°F10.5°C 49.5°F9.7°C 95% 2.0 mph WSW3.2 kmh WSW 10.0 mph16.1 kmh 29.93 in1013.5 mb 0.01 in0.3 mm 0.00 in0.0 mm 0.02 in0.5 mm
04:01 AM 51.0°F10.6°C 49.6°F9.8°C 95% 7.0 mph SW11.3 kmh SW 10.0 mph16.1 kmh 29.93 in1013.5 mb 0.01 in0.3 mm 0.00 in0.0 mm 0.02 in0.5 mm
04:06 AM 51.0°F10.6°C 49.6°F9.8°C 95% 4.0 mph W6.4 kmh W 11.0 mph17.7 kmh 29.93 in1013.5 mb 0.01 in0.3 mm 0.00 in0.0 mm 0.02 in0.5 mm
04:11 AM 51.0°F10.6°C 49.6°F9.8°C 95% 7.0 mph WSW11.3 kmh WSW 11.0 mph17.7 kmh 29.93 in1013.5 mb 0.00 in0.0 mm 0.00 in0.0 mm 0.02 in0.5 mm
04:16 AM 51.0°F10.6°C 49.6°F9.8°C 95% 9.0 mph WSW14.5 kmh WSW 11.0 mph17.7 kmh 29.93 in1013.5 mb 0.00 in0.0 mm 0.00 in0.0 mm 0.02 in0.5 mm
04:21 AM 51.0°F10.6°C 49.6°F9.8°C 95% 1.0 mph W1.6 kmh W 11.0 mph17.7 kmh 29.93 in1013.5 mb 0.00 in0.0 mm 0.00 in0.0 mm 0.02 in0.5 mm
04:26 AM 51.1°F10.6°C 49.7°F9.8°C 95% 5.0 mph WNW8.0 kmh WNW 9.0 mph14.5 kmh 29.93 in1013.5 mb 0.00 in0.0 mm 0.00 in0.0 mm 0.02 in0.5 mm
04:31 AM 51.0°F10.6°C 49.6°F9.8°C 95% 5.0 mph W8.0 kmh W 10.0 mph16.1 kmh 29.93 in1013.5 mb 0.00 in0.0 mm 0.00 in0.0 mm 0.02 in0.5 mm
04:36 AM 51.0°F10.6°C 49.6°F9.8°C 95% 5.0 mph SW8.0 kmh SW 10.0 mph16.1 kmh 29.94 in1013.9 mb 0.00 in0.0 mm 0.00 in0.0 mm 0.02 in0.5 mm
04:41 AM 51.0°F10.6°C 49.6°F9.8°C 95% 5.0 mph W8.0 kmh W 13.0 mph20.9 kmh 29.93 in1013.5 mb 0.00 in0.0 mm 0.00 in0.0 mm 0.02 in0.5 mm
04:46 AM 51.0°F10.6°C 49.6°F9.8°C 95% 4.0 mph W6.4 kmh W 11.0 mph17.7 kmh 29.94 in1013.9 mb 0.00 in0.0 mm 0.00 in0.0 mm 0.02 in0.5 mm
04:51 AM 51.0°F10.6°C 49.6°F9.8°C 95% 5.0 mph SW8.0 kmh SW 9.0 mph14.5 kmh 29.93 in1013.5 mb 0.01 in0.3 mm 0.12 in3.0 mm 0.03 in0.8 mm
04:56 AM 51.0°F10.6°C 49.6°F9.8°C 95% 4.0 mph SW6.4 kmh SW 12.0 mph19.3 kmh 29.93 in1013.5 mb 0.01 in0.3 mm 0.00 in0.0 mm 0.03 in0.8 mm
05:00 AM 51.0°F10.6°C 49.6°F9.8°C 95% 10.0 mph WSW16.1 kmh WSW 11.0 mph17.7 kmh 29.93 in1013.5 mb 0.01 in0.3 mm 0.00 in0.0 mm 0.03 in0.8 mm
05:05 AM 51.1°F10.6°C 49.7°F9.8°C 95% 5.0 mph SW8.0 kmh SW 10.0 mph16.1 kmh 29.93 in1013.5 mb 0.01 in0.3 mm 0.00 in0.0 mm 0.03 in0.8 mm
05:10 AM 51.2°F10.7°C 49.8°F9.9°C 95% 7.0 mph SW11.3 kmh SW 11.0 mph17.7 kmh 29.94 in1013.9 mb 0.01 in0.3 mm 0.00 in0.0 mm 0.03 in0.8 mm
05:15 AM 51.2°F10.7°C 49.8°F9.9°C 95% 5.0 mph SW8.0 kmh SW 11.0 mph17.7 kmh 29.94 in1013.9 mb 0.01 in0.3 mm 0.00 in0.0 mm 0.03 in0.8 mm
05:20 AM 51.3°F10.7°C 49.9°F9.9°C 95% 5.0 mph SW8.0 kmh SW 9.0 mph14.5 kmh 29.94 in1013.9 mb 0.01 in0.3 mm 0.00 in0.0 mm 0.03 in0.8 mm
05:25 AM 51.3°F10.7°C 49.9°F9.9°C 95% 10.0 mph SW16.1 kmh SW 10.0 mph16.1 kmh 29.94 in1013.9 mb 0.01 in0.3 mm 0.00 in0.0 mm 0.03 in0.8 mm
05:30 AM 51.3°F10.7°C 49.9°F9.9°C 95% 7.0 mph SW11.3 kmh SW 13.0 mph20.9 kmh 29.94 in1013.9 mb 0.01 in0.3 mm 0.00 in0.0 mm 0.03 in0.8 mm
05:35 AM 51.3°F10.7°C 49.9°F9.9°C 95% 3.0 mph SW4.8 kmh SW 8.0 mph12.9 kmh 29.94 in1013.9 mb 0.01 in0.3 mm 0.00 in0.0 mm 0.03 in0.8 mm
05:40 AM 51.3°F10.7°C 49.9°F9.9°C 95% 4.0 mph SW6.4 kmh SW 9.0 mph14.5 kmh 29.94 in1013.9 mb 0.01 in0.3 mm 0.00 in0.0 mm 0.03 in0.8 mm
05:45 AM 51.4°F10.8°C 50.0°F10.0°C 95% 4.0 mph SW6.4 kmh SW 9.0 mph14.5 kmh 29.94 in1013.9 mb 0.01 in0.3 mm 0.00 in0.0 mm 0.03 in0.8 mm
05:50 AM 51.5°F10.8°C 49.8°F9.9°C 94% 6.0 mph SW9.7 kmh SW 11.0 mph17.7 kmh 29.94 in1013.9 mb 0.00 in0.0 mm 0.00 in0.0 mm 0.03 in0.8 mm
05:55 AM 51.5°F10.8°C 49.8°F9.9°C 94% 7.0 mph WSW11.3 kmh WSW 10.0 mph16.1 kmh 29.94 in1013.9 mb 0.00 in0.0 mm 0.00 in0.0 mm 0.03 in0.8 mm
06:00 AM 51.7°F10.9°C 50.0°F10.0°C 94% 4.0 mph WSW6.4 kmh WSW 7.0 mph11.3 kmh 29.94 in1013.9 mb 0.00 in0.0 mm 0.00 in0.0 mm 0.03 in0.8 mm
06:05 AM 51.8°F11.0°C 50.1°F10.1°C 94% 6.0 mph WSW9.7 kmh WSW 12.0 mph19.3 kmh 29.94 in1013.9 mb 0.00 in0.0 mm 0.00 in0.0 mm 0.03 in0.8 mm
06:10 AM 52.0°F11.1°C 50.3°F10.2°C 94% 4.0 mph SW6.4 kmh SW 11.0 mph17.7 kmh 29.94 in1013.9 mb 0.00 in0.0 mm 0.00 in0.0 mm 0.03 in0.8 mm
06:15 AM 52.1°F11.2°C 50.1°F10.1°C 93% 5.0 mph W8.0 kmh W 9.0 mph14.5 kmh 29.95 in1014.2 mb 0.00 in0.0 mm 0.00 in0.0 mm 0.03 in0.8 mm
06:20 AM 52.3°F11.3°C 50.6°F10.3°C 94% 3.0 mph WSW4.8 kmh WSW 9.0 mph14.5 kmh 29.94 in1013.9 mb 0.00 in0.0 mm 0.00 in0.0 mm 0.03 in0.8 mm
06:25 AM 52.4°F11.3°C 50.1°F10.1°C 92% 3.0 mph SW4.8 kmh SW 11.0 mph17.7 kmh 29.94 in1013.9 mb 0.00 in0.0 mm 0.00 in0.0 mm 0.03 in0.8 mm
06:30 AM 52.4°F11.3°C 50.1°F10.1°C 92% 6.0 mph SW9.7 kmh SW 14.0 mph22.5 kmh 29.95 in1014.2 mb 0.00 in0.0 mm 0.00 in0.0 mm 0.03 in0.8 mm
06:35 AM 52.4°F11.3°C 50.1°F10.1°C 92% 5.0 mph SW8.0 kmh SW 10.0 mph16.1 kmh 29.95 in1014.2 mb 0.00 in0.0 mm 0.00 in0.0 mm 0.03 in0.8 mm
06:40 AM 52.6°F11.4°C 50.0°F10.0°C 91% 7.0 mph SW11.3 kmh SW 10.0 mph16.1 kmh 29.94 in1013.9 mb 0.00 in0.0 mm 0.00 in0.0 mm 0.03 in0.8 mm
06:45 AM 53.1°F11.7°C 50.5°F10.3°C 91% 6.0 mph SSW9.7 kmh SSW 12.0 mph19.3 kmh 29.94 in1013.9 mb 0.00 in0.0 mm 0.00 in0.0 mm 0.03 in0.8 mm
06:50 AM 53.4°F11.9°C 50.5°F10.3°C 90% 11.0 mph WSW17.7 kmh WSW 12.0 mph19.3 kmh 29.94 in1013.9 mb 0.00 in0.0 mm 0.00 in0.0 mm 0.03 in0.8 mm
06:55 AM 53.4°F11.9°C 50.2°F10.1°C 89% 4.0 mph SW6.4 kmh SW 13.0 mph20.9 kmh 29.94 in1013.9 mb 0.01 in0.3 mm 0.12 in3.0 mm 0.04 in1.0 mm
07:00 AM 53.8°F12.1°C 50.6°F10.3°C 89% 5.0 mph WSW8.0 kmh WSW 12.0 mph19.3 kmh 29.94 in1013.9 mb 0.01 in0.3 mm 0.00 in0.0 mm 0.04 in1.0 mm
07:05 AM 53.9°F12.2°C 50.1°F10.1°C 87% 4.0 mph W6.4 kmh W 15.0 mph24.1 kmh 29.94 in1013.9 mb 0.01 in0.3 mm 0.00 in0.0 mm 0.04 in1.0 mm
07:10 AM 53.8°F12.1°C 50.0°F10.0°C 87% 9.0 mph SW14.5 kmh SW 12.0 mph19.3 kmh 29.94 in1013.9 mb 0.01 in0.3 mm 0.00 in0.0 mm 0.04 in1.0 mm
07:15 AM 53.7°F12.1°C 50.2°F10.1°C 88% 7.0 mph WSW11.3 kmh WSW 10.0 mph16.1 kmh 29.95 in1014.2 mb 0.01 in0.3 mm 0.00 in0.0 mm 0.04 in1.0 mm
07:20 AM 53.6°F12.0°C 50.1°F10.1°C 88% 6.0 mph WSW9.7 kmh WSW 12.0 mph19.3 kmh 29.95 in1014.2 mb 0.01 in0.3 mm 0.00 in0.0 mm 0.04 in1.0 mm
07:25 AM 53.7°F12.1°C 50.2°F10.1°C 88% 10.0 mph W16.1 kmh W 11.0 mph17.7 kmh 29.95 in1014.2 mb 0.01 in0.3 mm 0.00 in0.0 mm 0.04 in1.0 mm
07:30 AM 53.8°F12.1°C 50.3°F10.2°C 88% 10.0 mph WSW16.1 kmh WSW 15.0 mph24.1 kmh 29.95 in1014.2 mb 0.01 in0.3 mm 0.00 in0.0 mm 0.04 in1.0 mm
07:35 AM 53.8°F12.1°C 50.0°F10.0°C 87% 6.0 mph SW9.7 kmh SW 14.0 mph22.5 kmh 29.95 in1014.2 mb 0.01 in0.3 mm 0.00 in0.0 mm 0.04 in1.0 mm
07:40 AM 53.9°F12.2°C 50.1°F10.1°C 87% 8.0 mph SW12.9 kmh SW 14.0 mph22.5 kmh 29.95 in1014.2 mb 0.01 in0.3 mm 0.00 in0.0 mm 0.04 in1.0 mm
07:45 AM 54.0°F12.2°C 50.5°F10.3°C 88% 9.0 mph SW14.5 kmh SW 13.0 mph20.9 kmh 29.96 in1014.6 mb 0.01 in0.3 mm 0.00 in0.0 mm 0.04 in1.0 mm
07:50 AM 54.0°F12.2°C 50.2°F10.1°C 87% 5.0 mph SW8.0 kmh SW 12.0 mph19.3 kmh 29.96 in1014.6 mb 0.01 in0.3 mm 0.00 in0.0 mm 0.04 in1.0 mm
07:55 AM 54.1°F12.3°C 50.3°F10.2°C 87% 10.0 mph W16.1 kmh W 11.0 mph17.7 kmh 29.96 in1014.6 mb 0.00 in0.0 mm 0.00 in0.0 mm 0.04 in1.0 mm
08:00 AM 54.3°F12.4°C 50.5°F10.3°C 87% 4.0 mph SW6.4 kmh SW 11.0 mph17.7 kmh 29.96 in1014.6 mb 0.00 in0.0 mm 0.00 in0.0 mm 0.04 in1.0 mm
08:05 AM 54.6°F12.6°C 50.4°F10.2°C 86% 5.0 mph WSW8.0 kmh WSW 12.0 mph19.3 kmh 29.95 in1014.2 mb 0.00 in0.0 mm 0.00 in0.0 mm 0.04 in1.0 mm
08:10 AM 54.8°F12.7°C 51.0°F10.6°C 87% 7.0 mph WSW11.3 kmh WSW 11.0 mph17.7 kmh 29.95 in1014.2 mb 0.00 in0.0 mm 0.00 in0.0 mm 0.04 in1.0 mm
08:15 AM 55.0°F12.8°C 50.8°F10.4°C 86% 10.0 mph WSW16.1 kmh WSW 11.0 mph17.7 kmh 29.96 in1014.6 mb 0.00 in0.0 mm 0.00 in0.0 mm 0.04 in1.0 mm
08:20 AM 55.2°F12.9°C 50.7°F10.4°C 85% 9.0 mph W14.5 kmh W 15.0 mph24.1 kmh 29.96 in1014.6 mb 0.00 in0.0 mm 0.00 in0.0 mm 0.04 in1.0 mm
08:25 AM 55.4°F13.0°C 50.9°F10.5°C 85% 10.0 mph SW16.1 kmh SW 12.0 mph19.3 kmh 29.96 in1014.6 mb 0.00 in0.0 mm 0.00 in0.0 mm 0.04 in1.0 mm
08:30 AM 55.8°F13.2°C 51.3°F10.7°C 85% 9.0 mph WSW14.5 kmh WSW 11.0 mph17.7 kmh 29.96 in1014.6 mb 0.00 in0.0 mm 0.00 in0.0 mm 0.04 in1.0 mm
08:35 AM 56.0°F13.3°C 51.2°F10.7°C 84% 9.0 mph WSW14.5 kmh WSW 14.0 mph22.5 kmh 29.96 in1014.6 mb 0.00 in0.0 mm 0.00 in0.0 mm 0.04 in1.0 mm
08:40 AM 56.2°F13.4°C 51.1°F10.6°C 83% 8.0 mph W12.9 kmh W 13.0 mph20.9 kmh 29.96 in1014.6 mb 0.00 in0.0 mm 0.00 in0.0 mm 0.04 in1.0 mm
08:45 AM 56.1°F13.4°C 51.0°F10.6°C 83% 10.0 mph WSW16.1 kmh WSW 13.0 mph20.9 kmh 29.96 in1014.6 mb 0.00 in0.0 mm 0.00 in0.0 mm 0.04 in1.0 mm
08:50 AM 56.0°F13.3°C 50.9°F10.5°C 83% 4.0 mph WSW6.4 kmh WSW 12.0 mph19.3 kmh 29.96 in1014.6 mb 0.00 in0.0 mm 0.00 in0.0 mm 0.04 in1.0 mm
08:55 AM 56.0°F13.3°C 51.2°F10.7°C 84% 3.0 mph SW4.8 kmh SW 10.0 mph16.1 kmh 29.96 in1014.6 mb 0.00 in0.0 mm 0.00 in0.0 mm 0.04 in1.0 mm
09:00 AM 55.9°F13.3°C 51.4°F10.8°C 85% 8.0 mph WSW12.9 kmh WSW 12.0 mph19.3 kmh 29.96 in1014.6 mb 0.00 in0.0 mm 0.00 in0.0 mm 0.04 in1.0 mm
09:05 AM 55.8°F13.2°C 51.6°F10.9°C 86% 4.0 mph WSW6.4 kmh WSW 9.0 mph14.5 kmh 29.95 in1014.2 mb 0.00 in0.0 mm 0.00 in0.0 mm 0.04 in1.0 mm
09:10 AM 55.8°F13.2°C 51.3°F10.7°C 85% 7.0 mph WSW11.3 kmh WSW 12.0 mph19.3 kmh 29.95 in1014.2 mb 0.00 in0.0 mm 0.00 in0.0 mm 0.04 in1.0 mm
09:15 AM 55.9°F13.3°C 51.7°F10.9°C 86% 7.0 mph WSW11.3 kmh WSW 10.0 mph16.1 kmh 29.96 in1014.6 mb 0.00 in0.0 mm 0.00 in0.0 mm 0.04 in1.0 mm
09:20 AM 56.1°F13.4°C 51.6°F10.9°C 85% 6.0 mph W9.7 kmh W 11.0 mph17.7 kmh 29.96 in1014.6 mb 0.00 in0.0 mm 0.00 in0.0 mm 0.04 in1.0 mm
09:25 AM 56.5°F13.6°C 52.0°F11.1°C 85% 5.0 mph SW8.0 kmh SW 10.0 mph16.1 kmh 29.96 in1014.6 mb 0.00 in0.0 mm 0.00 in0.0 mm 0.04 in1.0 mm
09:30 AM 56.9°F13.8°C 52.1°F11.2°C 84% 9.0 mph WNW14.5 kmh WNW 13.0 mph20.9 kmh 29.96 in1014.6 mb 0.00 in0.0 mm 0.00 in0.0 mm 0.04 in1.0 mm
09:35 AM 57.0°F13.9°C 51.8°F11.0°C 83% 10.0 mph SW16.1 kmh SW 12.0 mph19.3 kmh 29.96 in1014.6 mb 0.00 in0.0 mm 0.00 in0.0 mm 0.04 in1.0 mm
09:40 AM 57.4°F14.1°C 52.2°F11.2°C 83% 10.0 mph W16.1 kmh W 12.0 mph19.3 kmh 29.96 in1014.6 mb 0.00 in0.0 mm 0.00 in0.0 mm 0.04 in1.0 mm
09:45 AM 57.6°F14.2°C 52.1°F11.2°C 82% 7.0 mph W11.3 kmh W 13.0 mph20.9 kmh 29.96 in1014.6 mb 0.00 in0.0 mm 0.00 in0.0 mm 0.04 in1.0 mm
09:50 AM 57.7°F14.3°C 52.2°F11.2°C 82% 7.0 mph W11.3 kmh W 13.0 mph20.9 kmh 29.96 in1014.6 mb 0.01 in0.3 mm 0.12 in3.0 mm 0.05 in1.3 mm
09:55 AM 57.9°F14.4°C 52.4°F11.3°C 82% 12.0 mph WSW19.3 kmh WSW 17.0 mph27.4 kmh 29.96 in1014.6 mb 0.01 in0.3 mm 0.00 in0.0 mm 0.05 in1.3 mm
10:00 AM 57.7°F14.3°C 51.9°F11.1°C 81% 7.0 mph W11.3 kmh W 15.0 mph24.1 kmh 29.96 in1014.6 mb 0.01 in0.3 mm 0.00 in0.0 mm 0.05 in1.3 mm
10:05 AM 57.7°F14.3°C 52.2°F11.2°C 82% 6.0 mph WSW9.7 kmh WSW 16.0 mph25.7 kmh 29.96 in1014.6 mb 0.01 in0.3 mm 0.00 in0.0 mm 0.05 in1.3 mm
10:10 AM 57.8°F14.3°C 52.0°F11.1°C 81% 9.0 mph WSW14.5 kmh WSW 14.0 mph22.5 kmh 29.96 in1014.6 mb 0.01 in0.3 mm 0.00 in0.0 mm 0.05 in1.3 mm
10:15 AM 58.0°F14.4°C 52.5°F11.4°C 82% 11.0 mph W17.7 kmh W 13.0 mph20.9 kmh 29.96 in1014.6 mb 0.01 in0.3 mm 0.00 in0.0 mm 0.05 in1.3 mm
10:20 AM 58.3°F14.6°C 52.4°F11.3°C 81% 6.0 mph W9.7 kmh W 14.0 mph22.5 kmh 29.96 in1014.6 mb 0.01 in0.3 mm 0.00 in0.0 mm 0.05 in1.3 mm
10:25 AM 58.7°F14.8°C 52.5°F11.4°C 80% 6.0 mph WSW9.7 kmh WSW 11.0 mph17.7 kmh 29.96 in1014.6 mb 0.01 in0.3 mm 0.00 in0.0 mm 0.05 in1.3 mm
10:30 AM 59.5°F15.3°C 53.9°F12.2°C 82% 6.0 mph SW9.7 kmh SW 12.0 mph19.3 kmh 29.96 in1014.6 mb 0.01 in0.3 mm 0.00 in0.0 mm 0.05 in1.3 mm
10:35 AM 60.0°F15.6°C 53.8°F12.1°C 80% 5.0 mph W8.0 kmh W 13.0 mph20.9 kmh 29.96 in1014.6 mb 0.01 in0.3 mm 0.00 in0.0 mm 0.05 in1.3 mm
10:40 AM 60.0°F15.6°C 53.8°F12.1°C 80% 9.0 mph W14.5 kmh W 14.0 mph22.5 kmh 29.96 in1014.6 mb 0.01 in0.3 mm 0.00 in0.0 mm 0.05 in1.3 mm
10:45 AM 60.1°F15.6°C 53.9°F12.2°C 80% 6.0 mph WSW9.7 kmh WSW 13.0 mph20.9 kmh 29.96 in1014.6 mb 0.01 in0.3 mm 0.00 in0.0 mm 0.05 in1.3 mm
10:50 AM 60.1°F15.6°C 53.2°F11.8°C 78% 5.0 mph WSW8.0 kmh WSW 15.0 mph24.1 kmh 29.96 in1014.6 mb 0.00 in0.0 mm 0.00 in0.0 mm 0.05 in1.3 mm
10:55 AM 59.8°F15.4°C 52.9°F11.6°C 78% 8.0 mph W12.9 kmh W 15.0 mph24.1 kmh 29.96 in1014.6 mb 0.00 in0.0 mm 0.00 in0.0 mm 0.05 in1.3 mm
11:00 AM 59.6°F15.3°C 53.0°F11.7°C 79% 6.0 mph WSW9.7 kmh WSW 13.0 mph20.9 kmh 29.96 in1014.6 mb 0.00 in0.0 mm 0.00 in0.0 mm 0.05 in1.3 mm
11:05 AM 59.8°F15.4°C 53.2°F11.8°C 79% 9.0 mph W14.5 kmh W 11.0 mph17.7 kmh 29.96 in1014.6 mb 0.00 in0.0 mm 0.00 in0.0 mm 0.05 in1.3 mm
11:10 AM 59.9°F15.5°C 53.3°F11.8°C 79% 11.0 mph WSW17.7 kmh WSW 15.0 mph24.1 kmh 29.96 in1014.6 mb 0.00 in0.0 mm 0.00 in0.0 mm 0.05 in1.3 mm
11:15 AM 59.7°F15.4°C 52.4°F11.3°C 77% 5.0 mph SW8.0 kmh SW 14.0 mph22.5 kmh 29.96 in1014.6 mb 0.00 in0.0 mm 0.00 in0.0 mm 0.05 in1.3 mm
11:20 AM 59.4°F15.2°C 52.5°F11.4°C 78% 8.0 mph WNW12.9 kmh WNW 12.0 mph19.3 kmh 29.96 in1014.6 mb 0.00 in0.0 mm 0.00 in0.0 mm 0.05 in1.3 mm
11:25 AM 59.3°F15.2°C 52.7°F11.5°C 79% 7.0 mph WSW11.3 kmh WSW 14.0 mph22.5 kmh 29.97 in1014.9 mb 0.00 in0.0 mm 0.00 in0.0 mm 0.05 in1.3 mm
11:30 AM 59.2°F15.1°C 52.6°F11.4°C 79% 2.0 mph WSW3.2 kmh WSW 13.0 mph20.9 kmh 29.96 in1014.6 mb 0.00 in0.0 mm 0.00 in0.0 mm 0.05 in1.3 mm
11:35 AM 59.4°F15.2°C 52.8°F11.6°C 79% 7.0 mph W11.3 kmh W 11.0 mph17.7 kmh 29.96 in1014.6 mb 0.00 in0.0 mm 0.00 in0.0 mm 0.05 in1.3 mm
11:40 AM 59.5°F15.3°C 52.6°F11.4°C 78% 4.0 mph NW6.4 kmh NW 12.0 mph19.3 kmh 29.96 in1014.6 mb 0.00 in0.0 mm 0.00 in0.0 mm 0.05 in1.3 mm
11:45 AM 59.6°F15.3°C 52.7°F11.5°C 78% 3.0 mph WNW4.8 kmh WNW 13.0 mph20.9 kmh 29.96 in1014.6 mb 0.00 in0.0 mm 0.00 in0.0 mm 0.05 in1.3 mm
11:50 AM 59.7°F15.4°C 52.8°F11.6°C 78% 7.0 mph WSW11.3 kmh WSW 13.0 mph20.9 kmh 29.96 in1014.6 mb 0.00 in0.0 mm 0.00 in0.0 mm 0.05 in1.3 mm
11:55 AM 59.8°F15.4°C 52.9°F11.6°C 78% 5.0 mph W8.0 kmh W 12.0 mph19.3 kmh 29.96 in1014.6 mb 0.00 in0.0 mm 0.00 in0.0 mm 0.05 in1.3 mm
12:00 PM 59.9°F15.5°C 53.0°F11.7°C 78% 8.0 mph WSW12.9 kmh WSW 11.0 mph17.7 kmh 29.96 in1014.6 mb 0.00 in0.0 mm 0.00 in0.0 mm 0.05 in1.3 mm
12:05 PM 60.1°F15.6°C 53.2°F11.8°C 78% 7.0 mph W11.3 kmh W 13.0 mph20.9 kmh 29.96 in1014.6 mb 0.00 in0.0 mm 0.00 in0.0 mm 0.05 in1.3 mm
12:10 PM 60.5°F15.8°C 53.2°F11.8°C 77% 4.0 mph WSW6.4 kmh WSW 13.0 mph20.9 kmh 29.96 in1014.6 mb 0.00 in0.0 mm 0.00 in0.0 mm 0.05 in1.3 mm
12:15 PM 61.0°F16.1°C 53.0°F11.7°C 75% 10.0 mph WNW16.1 kmh WNW 15.0 mph24.1 kmh 29.96 in1014.6 mb 0.00 in0.0 mm 0.00 in0.0 mm 0.05 in1.3 mm
12:20 PM 61.3°F16.3°C 53.3°F11.8°C 75% 9.0 mph NNW14.5 kmh NNW 13.0 mph20.9 kmh 29.96 in1014.6 mb 0.00 in0.0 mm 0.00 in0.0 mm 0.05 in1.3 mm
12:25 PM 61.5°F16.4°C 53.1°F11.7°C 74% 7.0 mph W11.3 kmh W 12.0 mph19.3 kmh 29.96 in1014.6 mb 0.00 in0.0 mm 0.00 in0.0 mm 0.05 in1.3 mm
12:30 PM 61.7°F16.5°C 52.9°F11.6°C 73% 6.0 mph WNW9.7 kmh WNW 14.0 mph22.5 kmh 29.96 in1014.6 mb 0.00 in0.0 mm 0.00 in0.0 mm 0.05 in1.3 mm
12:35 PM 61.6°F16.4°C 52.4°F11.3°C 72% 7.0 mph W11.3 kmh W 13.0 mph20.9 kmh 29.96 in1014.6 mb 0.00 in0.0 mm 0.00 in0.0 mm 0.05 in1.3 mm
12:40 PM 61.6°F16.4°C 52.4°F11.3°C 72% 5.0 mph W8.0 kmh W 14.0 mph22.5 kmh 29.96 in1014.6 mb 0.00 in0.0 mm 0.00 in0.0 mm 0.05 in1.3 mm
12:45 PM 61.6°F16.4°C 52.1°F11.2°C 71% 5.0 mph WSW8.0 kmh WSW 16.0 mph25.7 kmh 29.96 in1014.6 mb 0.00 in0.0 mm 0.00 in0.0 mm 0.05 in1.3 mm
12:50 PM 61.5°F16.4°C 52.0°F11.1°C 71% 9.0 mph WSW14.5 kmh WSW 12.0 mph19.3 kmh 29.96 in1014.6 mb 0.00 in0.0 mm 0.00 in0.0 mm 0.05 in1.3 mm
12:55 PM 61.7°F16.5°C 52.1°F11.2°C 71% 7.0 mph SW11.3 kmh SW 12.0 mph19.3 kmh 29.96 in1014.6 mb 0.00 in0.0 mm 0.00 in0.0 mm 0.05 in1.3 mm
01:00 PM 61.9°F16.6°C 52.3°F11.3°C 71% 5.0 mph WSW8.0 kmh WSW 14.0 mph22.5 kmh 29.96 in1014.6 mb 0.00 in0.0 mm 0.00 in0.0 mm 0.05 in1.3 mm
01:05 PM 62.2°F16.8°C 52.6°F11.4°C 71% 8.0 mph WSW12.9 kmh WSW 12.0 mph19.3 kmh 29.96 in1014.6 mb 0.00 in0.0 mm 0.00 in0.0 mm 0.05 in1.3 mm
01:10 PM 62.3°F16.8°C 52.7°F11.5°C 71% 6.0 mph SW9.7 kmh SW 13.0 mph20.9 kmh 29.96 in1014.6 mb 0.00 in0.0 mm 0.00 in0.0 mm 0.05 in1.3 mm
01:15 PM 62.3°F16.8°C 53.1°F11.7°C 72% 6.0 mph WSW9.7 kmh WSW 11.0 mph17.7 kmh 29.96 in1014.6 mb 0.00 in0.0 mm 0.00 in0.0 mm 0.05 in1.3 mm
01:20 PM 62.2°F16.8°C 53.0°F11.7°C 72% 8.0 mph W12.9 kmh W 13.0 mph20.9 kmh 29.96 in1014.6 mb 0.00 in0.0 mm 0.00 in0.0 mm 0.05 in1.3 mm
01:25 PM 62.1°F16.7°C 52.9°F11.6°C 72% 3.0 mph W4.8 kmh W 11.0 mph17.7 kmh 29.96 in1014.6 mb 0.00 in0.0 mm 0.00 in0.0 mm 0.05 in1.3 mm
01:30 PM 62.0°F16.7°C 52.8°F11.6°C 72% 6.0 mph WSW9.7 kmh WSW 12.0 mph19.3 kmh 29.96 in1014.6 mb 0.00 in0.0 mm 0.00 in0.0 mm 0.05 in1.3 mm
01:35 PM 61.9°F16.6°C 53.1°F11.7°C 73% 12.0 mph SW19.3 kmh SW 12.0 mph19.3 kmh 29.96 in1014.6 mb 0.01 in0.3 mm 0.12 in3.0 mm 0.06 in1.5 mm
01:40 PM 61.9°F16.6°C 52.7°F11.5°C 72% 8.0 mph WSW12.9 kmh WSW 13.0 mph20.9 kmh 29.96 in1014.6 mb 0.01 in0.3 mm 0.00 in0.0 mm 0.06 in1.5 mm
01:45 PM 62.1°F16.7°C 53.7°F12.1°C 74% 5.0 mph WSW8.0 kmh WSW 11.0 mph17.7 kmh 29.96 in1014.6 mb 0.01 in0.3 mm 0.00 in0.0 mm 0.06 in1.5 mm
01:50 PM 62.4°F16.9°C 53.2°F11.8°C 72% 8.0 mph WSW12.9 kmh WSW 15.0 mph24.1 kmh 29.96 in1014.6 mb 0.01 in0.3 mm 0.00 in0.0 mm 0.06 in1.5 mm
01:55 PM 62.4°F16.9°C 53.2°F11.8°C 72% 7.0 mph WNW11.3 kmh WNW 14.0 mph22.5 kmh 29.96 in1014.6 mb 0.01 in0.3 mm 0.00 in0.0 mm 0.06 in1.5 mm
02:00 PM 62.3°F16.8°C 53.1°F11.7°C 72% 3.0 mph W4.8 kmh W 12.0 mph19.3 kmh 29.96 in1014.6 mb 0.01 in0.3 mm 0.00 in0.0 mm 0.06 in1.5 mm
02:05 PM 62.5°F16.9°C 53.3°F11.8°C 72% 9.0 mph W14.5 kmh W 13.0 mph20.9 kmh 29.95 in1014.2 mb 0.01 in0.3 mm 0.00 in0.0 mm 0.06 in1.5 mm
02:10 PM 62.6°F17.0°C 53.8°F12.1°C 73% 7.0 mph W11.3 kmh W 14.0 mph22.5 kmh 29.95 in1014.2 mb 0.01 in0.3 mm 0.00 in0.0 mm 0.06 in1.5 mm
02:15 PM 63.2°F17.3°C 53.2°F11.8°C 70% 5.0 mph WSW8.0 kmh WSW 15.0 mph24.1 kmh 29.95 in1014.2 mb 0.01 in0.3 mm 0.00 in0.0 mm 0.06 in1.5 mm
02:20 PM 63.5°F17.5°C 53.5°F11.9°C 70% 3.0 mph SW4.8 kmh SW 14.0 mph22.5 kmh 29.95 in1014.2 mb 0.01 in0.3 mm 0.00 in0.0 mm 0.06 in1.5 mm
02:25 PM 63.8°F17.7°C 53.8°F12.1°C 70% 5.0 mph WSW8.0 kmh WSW 14.0 mph22.5 kmh 29.95 in1014.2 mb 0.01 in0.3 mm 0.00 in0.0 mm 0.06 in1.5 mm
02:30 PM 63.5°F17.5°C 53.5°F11.9°C 70% 7.0 mph S11.3 kmh S 12.0 mph19.3 kmh 29.95 in1014.2 mb 0.01 in0.3 mm 0.00 in0.0 mm 0.06 in1.5 mm
02:35 PM 62.7°F17.1°C 52.7°F11.5°C 70% 14.0 mph WSW22.5 kmh WSW 16.0 mph25.7 kmh 29.95 in1014.2 mb 0.00 in0.0 mm 0.00 in0.0 mm 0.06 in1.5 mm
02:40 PM 61.9°F16.6°C 52.7°F11.5°C 72% 4.0 mph W6.4 kmh W 14.0 mph22.5 kmh 29.95 in1014.2 mb 0.00 in0.0 mm 0.00 in0.0 mm 0.06 in1.5 mm
02:45 PM 61.4°F16.3°C 53.4°F11.9°C 75% 9.0 mph W14.5 kmh W 17.0 mph27.4 kmh 29.96 in1014.6 mb 0.00 in0.0 mm 0.00 in0.0 mm 0.06 in1.5 mm
02:50 PM 59.9°F15.5°C 53.7°F12.1°C 80% 6.0 mph WSW9.7 kmh WSW 15.0 mph24.1 kmh 29.96 in1014.6 mb 0.00 in0.0 mm 0.00 in0.0 mm 0.06 in1.5 mm
02:55 PM 58.9°F14.9°C 53.7°F12.1°C 83% 6.0 mph SW9.7 kmh SW 10.0 mph16.1 kmh 29.96 in1014.6 mb 0.00 in0.0 mm 0.00 in0.0 mm 0.06 in1.5 mm
03:00 PM 58.0°F14.4°C 53.8°F12.1°C 86% 5.0 mph WSW8.0 kmh WSW 9.0 mph14.5 kmh 29.97 in1014.9 mb 0.00 in0.0 mm 0.00 in0.0 mm 0.06 in1.5 mm
03:05 PM 57.7°F14.3°C 53.8°F12.1°C 87% 4.0 mph WSW6.4 kmh WSW 7.0 mph11.3 kmh 29.97 in1014.9 mb 0.00 in0.0 mm 0.00 in0.0 mm 0.06 in1.5 mm
03:10 PM 57.6°F14.2°C 54.0°F12.2°C 88% 9.0 mph W14.5 kmh W 10.0 mph16.1 kmh 29.97 in1014.9 mb 0.00 in0.0 mm 0.00 in0.0 mm 0.06 in1.5 mm
03:15 PM 57.3°F14.1°C 53.7°F12.1°C 88% 7.0 mph WSW11.3 kmh WSW 12.0 mph19.3 kmh 29.98 in1015.2 mb 0.00 in0.0 mm 0.00 in0.0 mm 0.06 in1.5 mm
03:20 PM 56.9°F13.8°C 53.0°F11.7°C 87% 9.0 mph W14.5 kmh W 12.0 mph19.3 kmh 29.98 in1015.2 mb 0.00 in0.0 mm 0.00 in0.0 mm 0.06 in1.5 mm
03:25 PM 56.6°F13.7°C 53.0°F11.7°C 88% 9.0 mph WNW14.5 kmh WNW 13.0 mph20.9 kmh 29.98 in1015.2 mb 0.00 in0.0 mm 0.00 in0.0 mm 0.06 in1.5 mm
03:30 PM 56.4°F13.6°C 52.8°F11.6°C 88% 6.0 mph WSW9.7 kmh WSW 13.0 mph20.9 kmh 29.98 in1015.2 mb 0.00 in0.0 mm 0.00 in0.0 mm 0.06 in1.5 mm
03:35 PM 56.4°F13.6°C 52.8°F11.6°C 88% 3.0 mph WSW4.8 kmh WSW 10.0 mph16.1 kmh 29.98 in1015.2 mb 0.00 in0.0 mm 0.00 in0.0 mm 0.06 in1.5 mm
03:40 PM 56.3°F13.5°C 52.7°F11.5°C 88% 10.0 mph WSW16.1 kmh WSW 10.0 mph16.1 kmh 29.98 in1015.2 mb 0.00 in0.0 mm 0.00 in0.0 mm 0.06 in1.5 mm
03:45 PM 55.9°F13.3°C 52.0°F11.1°C 87% 5.0 mph W8.0 kmh W 12.0 mph19.3 kmh 29.99 in1015.6 mb 0.00 in0.0 mm 0.00 in0.0 mm 0.06 in1.5 mm
03:50 PM 55.5°F13.1°C 51.6°F10.9°C 87% 4.0 mph SW6.4 kmh SW 12.0 mph19.3 kmh 29.99 in1015.6 mb 0.00 in0.0 mm 0.00 in0.0 mm 0.06 in1.5 mm
03:55 PM 55.3°F12.9°C 52.1°F11.2°C 89% 3.0 mph SW4.8 kmh SW 12.0 mph19.3 kmh 29.99 in1015.6 mb 0.00 in0.0 mm 0.00 in0.0 mm 0.06 in1.5 mm
04:00 PM 55.2°F12.9°C 52.0°F11.1°C 89% 6.0 mph WSW9.7 kmh WSW 9.0 mph14.5 kmh 29.99 in1015.6 mb 0.00 in0.0 mm 0.00 in0.0 mm 0.06 in1.5 mm
04:05 PM 55.3°F12.9°C 52.4°F11.3°C 90% 6.0 mph SW9.7 kmh SW 12.0 mph19.3 kmh 29.99 in1015.6 mb 0.00 in0.0 mm 0.00 in0.0 mm 0.06 in1.5 mm
04:10 PM 55.3°F12.9°C 52.4°F11.3°C 90% 6.0 mph WSW9.7 kmh WSW 11.0 mph17.7 kmh 29.99 in1015.6 mb 0.00 in0.0 mm 0.00 in0.0 mm 0.06 in1.5 mm
04:15 PM 55.4°F13.0°C 52.5°F11.4°C 90% 6.0 mph WSW9.7 kmh WSW 13.0 mph20.9 kmh 29.98 in1015.2 mb 0.00 in0.0 mm 0.00 in0.0 mm 0.06 in1.5 mm
04:20 PM 55.3°F12.9°C 52.4°F11.3°C 90% 10.0 mph SW16.1 kmh SW 11.0 mph17.7 kmh 29.98 in1015.2 mb 0.00 in0.0 mm 0.00 in0.0 mm 0.06 in1.5 mm
04:25 PM 55.2°F12.9°C 52.6°F11.4°C 91% 6.0 mph SW9.7 kmh SW 13.0 mph20.9 kmh 29.98 in1015.2 mb 0.00 in0.0 mm 0.00 in0.0 mm 0.06 in1.5 mm
04:30 PM 55.4°F13.0°C 52.8°F11.6°C 91% 5.0 mph WSW8.0 kmh WSW 9.0 mph14.5 kmh 29.98 in1015.2 mb 0.00 in0.0 mm 0.00 in0.0 mm 0.06 in1.5 mm
04:35 PM 55.8°F13.2°C 53.2°F11.8°C 91% 4.0 mph WSW6.4 kmh WSW 10.0 mph16.1 kmh 29.98 in1015.2 mb 0.00 in0.0 mm 0.00 in0.0 mm 0.06 in1.5 mm
04:40 PM 56.4°F13.6°C 54.1°F12.3°C 92% 5.0 mph WSW8.0 kmh WSW 11.0 mph17.7 kmh 29.98 in1015.2 mb 0.00 in0.0 mm 0.00 in0.0 mm 0.06 in1.5 mm
04:45 PM 56.7°F13.7°C 53.7°F12.1°C 90% 5.0 mph WSW8.0 kmh WSW 12.0 mph19.3 kmh 29.98 in1015.2 mb 0.00 in0.0 mm 0.00 in0.0 mm 0.06 in1.5 mm
04:50 PM 56.7°F13.7°C 53.4°F11.9°C 89% 6.0 mph SW9.7 kmh SW 11.0 mph17.7 kmh 29.98 in1015.2 mb 0.00 in0.0 mm 0.00 in0.0 mm 0.06 in1.5 mm
04:55 PM 56.8°F13.8°C 53.5°F11.9°C 89% 4.0 mph W6.4 kmh W 12.0 mph19.3 kmh 29.98 in1015.2 mb 0.00 in0.0 mm 0.00 in0.0 mm 0.06 in1.5 mm
05:00 PM 57.1°F13.9°C 53.8°F12.1°C 89% 2.0 mph SW3.2 kmh SW 11.0 mph17.7 kmh 29.98 in1015.2 mb 0.00 in0.0 mm 0.00 in0.0 mm 0.06 in1.5 mm
05:05 PM 57.2°F14.0°C 53.3°F11.8°C 87% 7.0 mph WSW11.3 kmh WSW 12.0 mph19.3 kmh 29.98 in1015.2 mb 0.00 in0.0 mm 0.00 in0.0 mm 0.06 in1.5 mm
05:10 PM 57.4°F14.1°C 53.5°F11.9°C 87% 6.0 mph WSW9.7 kmh WSW 11.0 mph17.7 kmh 29.99 in1015.6 mb 0.00 in0.0 mm 0.00 in0.0 mm 0.06 in1.5 mm
05:15 PM 57.4°F14.1°C 53.5°F11.9°C 87% 3.0 mph WSW4.8 kmh WSW 11.0 mph17.7 kmh 29.99 in1015.6 mb 0.00 in0.0 mm 0.00 in0.0 mm 0.06 in1.5 mm
05:20 PM 57.4°F14.1°C 53.5°F11.9°C 87% 6.0 mph WSW9.7 kmh WSW 12.0 mph19.3 kmh 29.99 in1015.6 mb 0.00 in0.0 mm 0.00 in0.0 mm 0.06 in1.5 mm
05:25 PM 57.3°F14.1°C 53.4°F11.9°C 87% 9.0 mph WSW14.5 kmh WSW 12.0 mph19.3 kmh 29.99 in1015.6 mb 0.00 in0.0 mm 0.00 in0.0 mm 0.06 in1.5 mm
05:30 PM 57.3°F14.1°C 53.7°F12.1°C 88% 9.0 mph WSW14.5 kmh WSW 10.0 mph16.1 kmh 29.99 in1015.6 mb 0.00 in0.0 mm 0.00 in0.0 mm 0.06 in1.5 mm
05:35 PM 57.3°F14.1°C 53.7°F12.1°C 88% 4.0 mph W6.4 kmh W 12.0 mph19.3 kmh 29.99 in1015.6 mb 0.00 in0.0 mm 0.00 in0.0 mm 0.06 in1.5 mm
05:40 PM 57.2°F14.0°C 53.6°F12.0°C 88% 6.0 mph SW9.7 kmh SW 10.0 mph16.1 kmh 29.99 in1015.6 mb 0.00 in0.0 mm 0.00 in0.0 mm 0.06 in1.5 mm
05:45 PM 57.2°F14.0°C 53.6°F12.0°C 88% 3.0 mph WSW4.8 kmh WSW 11.0 mph17.7 kmh 29.99 in1015.6 mb 0.00 in0.0 mm 0.00 in0.0 mm 0.06 in1.5 mm
05:50 PM 57.2°F14.0°C 53.6°F12.0°C 88% 2.0 mph WSW3.2 kmh WSW 9.0 mph14.5 kmh 29.99 in1015.6 mb 0.00 in0.0 mm 0.00 in0.0 mm 0.06 in1.5 mm
05:55 PM 57.2°F14.0°C 53.6°F12.0°C 88% 4.0 mph WSW6.4 kmh WSW 10.0 mph16.1 kmh 29.99 in1015.6 mb 0.00 in0.0 mm 0.00 in0.0 mm 0.06 in1.5 mm
06:00 PM 57.2°F14.0°C 53.6°F12.0°C 88% 2.0 mph SW3.2 kmh SW 9.0 mph14.5 kmh 29.99 in1015.6 mb 0.00 in0.0 mm 0.00 in0.0 mm 0.06 in1.5 mm
06:05 PM 57.3°F14.1°C 53.7°F12.1°C 88% 4.0 mph SW6.4 kmh SW 8.0 mph12.9 kmh 29.99 in1015.6 mb 0.00 in0.0 mm 0.00 in0.0 mm 0.06 in1.5 mm
06:10 PM 57.4°F14.1°C 53.8°F12.1°C 88% 5.0 mph WSW8.0 kmh WSW 8.0 mph12.9 kmh 29.99 in1015.6 mb 0.00 in0.0 mm 0.00 in0.0 mm 0.06 in1.5 mm
06:15 PM 57.5°F14.2°C 53.9°F12.2°C 88% 5.0 mph WSW8.0 kmh WSW 8.0 mph12.9 kmh 29.99 in1015.6 mb 0.00 in0.0 mm 0.00 in0.0 mm 0.06 in1.5 mm
06:20 PM 57.6°F14.2°C 54.0°F12.2°C 88% 4.0 mph WSW6.4 kmh WSW 9.0 mph14.5 kmh 29.99 in1015.6 mb 0.00 in0.0 mm 0.00 in0.0 mm 0.06 in1.5 mm
06:25 PM 57.8°F14.3°C 54.2°F12.3°C 88% 5.0 mph SW8.0 kmh SW 5.0 mph8.0 kmh 29.99 in1015.6 mb 0.00 in0.0 mm 0.00 in0.0 mm 0.06 in1.5 mm
06:30 PM 58.0°F14.4°C 54.4°F12.4°C 88% 6.0 mph SW9.7 kmh SW 7.0 mph11.3 kmh 29.99 in1015.6 mb 0.00 in0.0 mm 0.00 in0.0 mm 0.06 in1.5 mm
06:35 PM 58.0°F14.4°C 54.4°F12.4°C 88% 4.0 mph WSW6.4 kmh WSW 7.0 mph11.3 kmh 29.99 in1015.6 mb 0.00 in0.0 mm 0.00 in0.0 mm 0.06 in1.5 mm
06:40 PM 58.0°F14.4°C 54.4°F12.4°C 88% 4.0 mph WSW6.4 kmh WSW 7.0 mph11.3 kmh 29.99 in1015.6 mb 0.00 in0.0 mm 0.00 in0.0 mm 0.06 in1.5 mm
06:45 PM 57.9°F14.4°C 54.3°F12.4°C 88% 4.0 mph SW6.4 kmh SW 6.0 mph9.7 kmh 29.99 in1015.6 mb 0.00 in0.0 mm 0.00 in0.0 mm 0.06 in1.5 mm
06:50 PM 57.8°F14.3°C 54.2°F12.3°C 88% 2.0 mph WSW3.2 kmh WSW 6.0 mph9.7 kmh 29.99 in1015.6 mb 0.00 in0.0 mm 0.00 in0.0 mm 0.06 in1.5 mm
06:55 PM 57.9°F14.4°C 54.6°F12.6°C 89% 3.0 mph WSW4.8 kmh WSW 6.0 mph9.7 kmh 29.99 in1015.6 mb 0.00 in0.0 mm 0.00 in0.0 mm 0.06 in1.5 mm
07:00 PM 57.8°F14.3°C 54.5°F12.5°C 89% 4.0 mph WSW6.4 kmh WSW 5.0 mph8.0 kmh 29.99 in1015.6 mb 0.00 in0.0 mm 0.00 in0.0 mm 0.06 in1.5 mm
07:05 PM 57.8°F14.3°C 54.5°F12.5°C 89% 3.0 mph WSW4.8 kmh WSW 5.0 mph8.0 kmh 29.99 in1015.6 mb 0.00 in0.0 mm 0.00 in0.0 mm 0.06 in1.5 mm
07:10 PM 57.7°F14.3°C 54.4°F12.4°C 89% 5.0 mph W8.0 kmh W 6.0 mph9.7 kmh 29.99 in1015.6 mb 0.00 in0.0 mm 0.00 in0.0 mm 0.06 in1.5 mm
07:15 PM 57.6°F14.2°C 54.3°F12.4°C 89% 9.0 mph WSW14.5 kmh WSW 9.0 mph14.5 kmh 29.99 in1015.6 mb 0.00 in0.0 mm 0.00 in0.0 mm 0.06 in1.5 mm
07:20 PM 57.5°F14.2°C 54.2°F12.3°C 89% 4.0 mph WSW6.4 kmh WSW 6.0 mph9.7 kmh 29.99 in1015.6 mb 0.00 in0.0 mm 0.00 in0.0 mm 0.06 in1.5 mm
07:25 PM 57.3°F14.1°C 54.3°F12.4°C 90% 4.0 mph WSW6.4 kmh WSW 6.0 mph9.7 kmh 30.00 in1015.9 mb 0.00 in0.0 mm 0.00 in0.0 mm 0.06 in1.5 mm
07:30 PM 57.2°F14.0°C 54.2°F12.3°C 90% 4.0 mph SW6.4 kmh SW 10.0 mph16.1 kmh 30.00 in1015.9 mb 0.00 in0.0 mm 0.00 in0.0 mm 0.06 in1.5 mm
07:35 PM 57.1°F13.9°C 54.1°F12.3°C 90% 3.0 mph WSW4.8 kmh WSW 8.0 mph12.9 kmh 30.00 in1015.9 mb 0.00 in0.0 mm 0.00 in0.0 mm 0.06 in1.5 mm
07:40 PM 57.1°F13.9°C 53.8°F12.1°C 89% 5.0 mph SW8.0 kmh SW 7.0 mph11.3 kmh 30.00 in1015.9 mb 0.00 in0.0 mm 0.00 in0.0 mm 0.06 in1.5 mm
07:45 PM 57.0°F13.9°C 53.7°F12.1°C 89% 5.0 mph W8.0 kmh W 10.0 mph16.1 kmh 30.00 in1015.9 mb 0.00 in0.0 mm 0.00 in0.0 mm 0.06 in1.5 mm
07:50 PM 56.9°F13.8°C 53.6°F12.0°C 89% 5.0 mph SW8.0 kmh SW 5.0 mph8.0 kmh 30.01 in1016.3 mb 0.00 in0.0 mm 0.00 in0.0 mm 0.06 in1.5 mm
07:55 PM 56.7°F13.7°C 53.4°F11.9°C 89% 4.0 mph WSW6.4 kmh WSW 7.0 mph11.3 kmh 30.01 in1016.3 mb 0.00 in0.0 mm 0.00 in0.0 mm 0.06 in1.5 mm
08:00 PM 56.4°F13.6°C 53.5°F11.9°C 90% 6.0 mph WSW9.7 kmh WSW 9.0 mph14.5 kmh 30.01 in1016.3 mb 0.00 in0.0 mm 0.00 in0.0 mm 0.06 in1.5 mm
08:05 PM 56.2°F13.4°C 53.3°F11.8°C 90% 2.0 mph SW3.2 kmh SW 8.0 mph12.9 kmh 30.00 in1015.9 mb 0.00 in0.0 mm 0.00 in0.0 mm 0.06 in1.5 mm
08:10 PM 56.1°F13.4°C 53.2°F11.8°C 90% 4.0 mph WSW6.4 kmh WSW 5.0 mph8.0 kmh 30.01 in1016.3 mb 0.00 in0.0 mm 0.00 in0.0 mm 0.06 in1.5 mm
08:15 PM 56.1°F13.4°C 53.5°F11.9°C 91% 4.0 mph WSW6.4 kmh WSW 6.0 mph9.7 kmh 30.01 in1016.3 mb 0.00 in0.0 mm 0.00 in0.0 mm 0.06 in1.5 mm
08:20 PM 56.0°F13.3°C 53.4°F11.9°C 91% 5.0 mph WSW8.0 kmh WSW 8.0 mph12.9 kmh 30.01 in1016.3 mb 0.00 in0.0 mm 0.00 in0.0 mm 0.06 in1.5 mm
08:25 PM 56.0°F13.3°C 53.4°F11.9°C 91% 4.0 mph SSW6.4 kmh SSW 7.0 mph11.3 kmh 30.01 in1016.3 mb 0.00 in0.0 mm 0.00 in0.0 mm 0.06 in1.5 mm
08:30 PM 56.0°F13.3°C 53.4°F11.9°C 91% 5.0 mph SW8.0 kmh SW 11.0 mph17.7 kmh 30.01 in1016.3 mb 0.00 in0.0 mm 0.00 in0.0 mm 0.06 in1.5 mm
08:35 PM 55.9°F13.3°C 53.3°F11.8°C 91% 3.0 mph WSW4.8 kmh WSW 9.0 mph14.5 kmh 30.02 in1016.6 mb 0.00 in0.0 mm 0.00 in0.0 mm 0.06 in1.5 mm
08:40 PM 56.0°F13.3°C 53.4°F11.9°C 91% 5.0 mph WSW8.0 kmh WSW 6.0 mph9.7 kmh 30.02 in1016.6 mb 0.00 in0.0 mm 0.00 in0.0 mm 0.06 in1.5 mm
08:45 PM 56.0°F13.3°C 53.4°F11.9°C 91% 5.0 mph W8.0 kmh W 7.0 mph11.3 kmh 30.02 in1016.6 mb 0.00 in0.0 mm 0.00 in0.0 mm 0.06 in1.5 mm
08:50 PM 56.0°F13.3°C 53.4°F11.9°C 91% 4.0 mph SW6.4 kmh SW 7.0 mph11.3 kmh 30.02 in1016.6 mb 0.00 in0.0 mm 0.00 in0.0 mm 0.06 in1.5 mm
08:55 PM 56.1°F13.4°C 53.5°F11.9°C 91% 5.0 mph WSW8.0 kmh WSW 10.0 mph16.1 kmh 30.02 in1016.6 mb 0.00 in0.0 mm 0.00 in0.0 mm 0.06 in1.5 mm
09:00 PM 56.1°F13.4°C 53.5°F11.9°C 91% 7.0 mph WSW11.3 kmh WSW 11.0 mph17.7 kmh 30.02 in1016.6 mb 0.00 in0.0 mm 0.00 in0.0 mm 0.06 in1.5 mm
09:05 PM 56.2°F13.4°C 53.6°F12.0°C 91% 4.0 mph WNW6.4 kmh WNW 9.0 mph14.5 kmh 30.02 in1016.6 mb 0.00 in0.0 mm 0.00 in0.0 mm 0.06 in1.5 mm
09:10 PM 56.2°F13.4°C 53.6°F12.0°C 91% 3.0 mph WSW4.8 kmh WSW 9.0 mph14.5 kmh 30.02 in1016.6 mb 0.00 in0.0 mm 0.00 in0.0 mm 0.06 in1.5 mm
09:15 PM 56.2°F13.4°C 53.6°F12.0°C 91% 4.0 mph W6.4 kmh W 9.0 mph14.5 kmh 30.02 in1016.6 mb 0.00 in0.0 mm 0.00 in0.0 mm 0.06 in1.5 mm
09:20 PM 56.2°F13.4°C 53.3°F11.8°C 90% 8.0 mph WSW12.9 kmh WSW 11.0 mph17.7 kmh 30.02 in1016.6 mb 0.00 in0.0 mm 0.00 in0.0 mm 0.06 in1.5 mm
09:25 PM 56.2°F13.4°C 53.3°F11.8°C 90% 7.0 mph W11.3 kmh W 13.0 mph20.9 kmh 30.02 in1016.6 mb 0.00 in0.0 mm 0.00 in0.0 mm 0.06 in1.5 mm
09:30 PM 56.2°F13.4°C 53.3°F11.8°C 90% 8.0 mph SW12.9 kmh SW 12.0 mph19.3 kmh 30.02 in1016.6 mb 0.00 in0.0 mm 0.00 in0.0 mm 0.06 in1.5 mm
09:35 PM 56.1°F13.4°C 53.2°F11.8°C 90% 9.0 mph WSW14.5 kmh WSW 13.0 mph20.9 kmh 30.02 in1016.6 mb 0.00 in0.0 mm 0.00 in0.0 mm 0.06 in1.5 mm
09:40 PM 56.0°F13.3°C 53.1°F11.7°C 90% 8.0 mph WSW12.9 kmh WSW 12.0 mph19.3 kmh 30.02 in1016.6 mb 0.00 in0.0 mm 0.00 in0.0 mm 0.06 in1.5 mm
09:45 PM 55.9°F13.3°C 53.0°F11.7°C 90% 3.0 mph WSW4.8 kmh WSW 12.0 mph19.3 kmh 30.02 in1016.6 mb 0.00 in0.0 mm 0.00 in0.0 mm 0.06 in1.5 mm
09:50 PM 55.8°F13.2°C 52.9°F11.6°C 90% 6.0 mph SW9.7 kmh SW 11.0 mph17.7 kmh 30.02 in1016.6 mb 0.00 in0.0 mm 0.00 in0.0 mm 0.06 in1.5 mm
09:55 PM 55.6°F13.1°C 53.0°F11.7°C 91% 7.0 mph W11.3 kmh W 10.0 mph16.1 kmh 30.02 in1016.6 mb 0.00 in0.0 mm 0.00 in0.0 mm 0.06 in1.5 mm
10:00 PM 55.5°F13.1°C 52.9°F11.6°C 91% 4.0 mph WSW6.4 kmh WSW 10.0 mph16.1 kmh 30.02 in1016.6 mb 0.00 in0.0 mm 0.00 in0.0 mm 0.06 in1.5 mm
10:05 PM 55.4°F13.0°C 52.8°F11.6°C 91% 5.0 mph WSW8.0 kmh WSW 13.0 mph20.9 kmh 30.02 in1016.6 mb 0.00 in0.0 mm 0.00 in0.0 mm 0.06 in1.5 mm
10:10 PM 55.3°F12.9°C 52.7°F11.5°C 91% 6.0 mph W9.7 kmh W 9.0 mph14.5 kmh 30.02 in1016.6 mb 0.00 in0.0 mm 0.00 in0.0 mm 0.06 in1.5 mm
10:15 PM 55.2°F12.9°C 52.6°F11.4°C 91% 5.0 mph SSW8.0 kmh SSW 10.0 mph16.1 kmh 30.02 in1016.6 mb 0.00 in0.0 mm 0.00 in0.0 mm 0.06 in1.5 mm
10:20 PM 55.3°F12.9°C 52.7°F11.5°C 91% 4.0 mph WSW6.4 kmh WSW 9.0 mph14.5 kmh 30.02 in1016.6 mb 0.00 in0.0 mm 0.00 in0.0 mm 0.06 in1.5 mm
10:25 PM 55.2°F12.9°C 52.6°F11.4°C 91% 5.0 mph WSW8.0 kmh WSW 9.0 mph14.5 kmh 30.02 in1016.6 mb 0.00 in0.0 mm 0.00 in0.0 mm 0.06 in1.5 mm
10:30 PM 55.3°F12.9°C 52.7°F11.5°C 91% 5.0 mph W8.0 kmh W 10.0 mph16.1 kmh 30.02 in1016.6 mb 0.00 in0.0 mm 0.00 in0.0 mm 0.06 in1.5 mm
10:35 PM 55.3°F12.9°C 52.7°F11.5°C 91% 6.0 mph WSW9.7 kmh WSW 7.0 mph11.3 kmh 30.02 in1016.6 mb 0.00 in0.0 mm 0.00 in0.0 mm 0.06 in1.5 mm
10:40 PM 55.4°F13.0°C 52.8°F11.6°C 91% 6.0 mph SW9.7 kmh SW 10.0 mph16.1 kmh 30.02 in1016.6 mb 0.00 in0.0 mm 0.00 in0.0 mm 0.06 in1.5 mm
10:45 PM 55.3°F12.9°C 52.7°F11.5°C 91% 6.0 mph WSW9.7 kmh WSW 10.0 mph16.1 kmh 30.02 in1016.6 mb 0.00 in0.0 mm 0.00 in0.0 mm 0.06 in1.5 mm
10:50 PM 55.3°F12.9°C 52.7°F11.5°C 91% 9.0 mph W14.5 kmh W 11.0 mph17.7 kmh 30.02 in1016.6 mb 0.00 in0.0 mm 0.00 in0.0 mm 0.06 in1.5 mm
10:55 PM 55.1°F12.8°C 52.5°F11.4°C 91% 3.0 mph WSW4.8 kmh WSW 12.0 mph19.3 kmh 30.02 in1016.6 mb 0.00 in0.0 mm 0.00 in0.0 mm 0.06 in1.5 mm
11:00 PM 55.1°F12.8°C 52.5°F11.4°C 91% 6.0 mph W9.7 kmh W 8.0 mph12.9 kmh 30.03 in1016.9 mb 0.00 in0.0 mm 0.00 in0.0 mm 0.06 in1.5 mm
11:05 PM 54.9°F12.7°C 52.3°F11.3°C 91% 5.0 mph W8.0 kmh W 7.0 mph11.3 kmh 30.03 in1016.9 mb 0.00 in0.0 mm 0.00 in0.0 mm 0.07 in1.8 mm
11:10 PM 54.8°F12.7°C 52.2°F11.2°C 91% 4.0 mph WSW6.4 kmh WSW 9.0 mph14.5 kmh 30.03 in1016.9 mb 0.00 in0.0 mm 0.00 in0.0 mm 0.07 in1.8 mm
11:15 PM 54.8°F12.7°C 52.2°F11.2°C 91% 4.0 mph WSW6.4 kmh WSW 7.0 mph11.3 kmh 30.03 in1016.9 mb 0.00 in0.0 mm 0.00 in0.0 mm 0.07 in1.8 mm
11:20 PM 54.8°F12.7°C 52.2°F11.2°C 91% 4.0 mph WNW6.4 kmh WNW 9.0 mph14.5 kmh 30.03 in1016.9 mb 0.00 in0.0 mm 0.00 in0.0 mm 0.07 in1.8 mm
11:25 PM 54.7°F12.6°C 52.4°F11.3°C 92% 3.0 mph WSW4.8 kmh WSW 6.0 mph9.7 kmh 30.03 in1016.9 mb 0.00 in0.0 mm 0.00 in0.0 mm 0.07 in1.8 mm
11:30 PM 54.7°F12.6°C 52.4°F11.3°C 92% 4.0 mph W6.4 kmh W 7.0 mph11.3 kmh 30.03 in1016.9 mb 0.00 in0.0 mm 0.00 in0.0 mm 0.07 in1.8 mm
11:35 PM 54.6°F12.6°C 52.0°F11.1°C 91% 4.0 mph SW6.4 kmh SW 7.0 mph11.3 kmh 30.03 in1016.9 mb 0.00 in0.0 mm 0.00 in0.0 mm 0.07 in1.8 mm
11:40 PM 54.5°F12.5°C 51.9°F11.1°C 91% 4.0 mph SW6.4 kmh SW 8.0 mph12.9 kmh 30.03 in1016.9 mb 0.00 in0.0 mm 0.00 in0.0 mm 0.07 in1.8 mm
11:45 PM 54.4°F12.4°C 51.8°F11.0°C 91% 3.0 mph WSW4.8 kmh WSW 7.0 mph11.3 kmh 30.03 in1016.9 mb 0.00 in0.0 mm 0.00 in0.0 mm 0.07 in1.8 mm
11:50 PM 54.3°F12.4°C 52.0°F11.1°C 92% 7.0 mph SSW11.3 kmh SSW 10.0 mph16.1 kmh 30.03 in1016.9 mb 0.00 in0.0 mm 0.00 in0.0 mm 0.07 in1.8 mm
11:55 PM 54.3°F12.4°C 52.0°F11.1°C 92% 4.0 mph SW6.4 kmh SW 7.0 mph11.3 kmh 30.03 in1016.9 mb 0.00 in0.0 mm 0.00 in0.0 mm 0.07 in1.8 mm